sensor_id;sensor_type;location;lat;lon;timestamp;temperature;humidity
68912;SHT31;55953;51.650;-0.522;2023-02-17T00:01:31;11.19;87.43
68912;SHT31;55953;51.650;-0.522;2023-02-17T00:04:00;11.22;87.44
68912;SHT31;55953;51.650;-0.522;2023-02-17T00:06:29;11.25;87.44
68912;SHT31;55953;51.650;-0.522;2023-02-17T00:08:58;11.27;87.41
68912;SHT31;55953;51.650;-0.522;2023-02-17T00:11:26;11.31;87.45
68912;SHT31;55953;51.650;-0.522;2023-02-17T00:13:55;11.36;87.43
68912;SHT31;55953;51.650;-0.522;2023-02-17T00:16:24;11.39;87.38
68912;SHT31;55953;51.650;-0.522;2023-02-17T00:18:55;11.41;87.35
68912;SHT31;55953;51.650;-0.522;2023-02-17T00:21:30;11.46;87.40
68912;SHT31;55953;51.650;-0.522;2023-02-17T00:23:59;11.48;87.27
68912;SHT31;55953;51.650;-0.522;2023-02-17T00:26:27;11.49;87.28
68912;SHT31;55953;51.650;-0.522;2023-02-17T00:28:56;11.52;87.14
68912;SHT31;55953;51.650;-0.522;2023-02-17T00:31:24;11.53;87.17
68912;SHT31;55953;51.650;-0.522;2023-02-17T00:33:53;11.53;87.16
68912;SHT31;55953;51.650;-0.522;2023-02-17T00:36:22;11.55;87.13
68912;SHT31;55953;51.650;-0.522;2023-02-17T00:38:53;11.58;87.09
68912;SHT31;55953;51.650;-0.522;2023-02-17T00:41:24;11.59;87.10
68912;SHT31;55953;51.650;-0.522;2023-02-17T00:43:57;11.61;87.05
68912;SHT31;55953;51.650;-0.522;2023-02-17T00:46:25;11.63;87.15
68912;SHT31;55953;51.650;-0.522;2023-02-17T00:48:53;11.65;87.03
68912;SHT31;55953;51.650;-0.522;2023-02-17T00:51:22;11.65;87.12
68912;SHT31;55953;51.650;-0.522;2023-02-17T00:53:50;11.69;87.16
68912;SHT31;55953;51.650;-0.522;2023-02-17T00:56:18;11.73;87.18
68912;SHT31;55953;51.650;-0.522;2023-02-17T00:58:46;11.76;87.37
68912;SHT31;55953;51.650;-0.522;2023-02-17T01:01:14;11.80;87.23
68912;SHT31;55953;51.650;-0.522;2023-02-17T01:03:42;11.86;87.13
68912;SHT31;55953;51.650;-0.522;2023-02-17T01:06:12;11.89;87.03
68912;SHT31;55953;51.650;-0.522;2023-02-17T01:08:50;11.94;87.08
68912;SHT31;55953;51.650;-0.522;2023-02-17T01:11:21;11.98;87.01
68912;SHT31;55953;51.650;-0.522;2023-02-17T01:13:57;12.02;86.95
68912;SHT31;55953;51.650;-0.522;2023-02-17T01:16:30;12.05;86.89
68912;SHT31;55953;51.650;-0.522;2023-02-17T01:19:06;12.08;86.82
68912;SHT31;55953;51.650;-0.522;2023-02-17T01:21:38;12.11;86.75
68912;SHT31;55953;51.650;-0.522;2023-02-17T01:24:10;12.13;86.64
68912;SHT31;55953;51.650;-0.522;2023-02-17T01:26:39;12.15;86.55
68912;SHT31;55953;51.650;-0.522;2023-02-17T01:29:07;12.17;86.42
68912;SHT31;55953;51.650;-0.522;2023-02-17T01:31:35;12.17;86.34
68912;SHT31;55953;51.650;-0.522;2023-02-17T01:34:04;12.16;86.19
68912;SHT31;55953;51.650;-0.522;2023-02-17T01:36:32;12.14;86.16
68912;SHT31;55953;51.650;-0.522;2023-02-17T01:39:00;12.15;86.16
68912;SHT31;55953;51.650;-0.522;2023-02-17T01:41:28;12.16;86.01
68912;SHT31;55953;51.650;-0.522;2023-02-17T01:44:07;12.18;86.01
68912;SHT31;55953;51.650;-0.522;2023-02-17T01:46:49;12.17;85.93
68912;SHT31;55953;51.650;-0.522;2023-02-17T01:49:28;12.17;85.90
68912;SHT31;55953;51.650;-0.522;2023-02-17T01:52:03;12.16;85.93
68912;SHT31;55953;51.650;-0.522;2023-02-17T01:55:00;12.14;85.90
68912;SHT31;55953;51.650;-0.522;2023-02-17T01:57:36;12.10;85.92
68912;SHT31;55953;51.650;-0.522;2023-02-17T02:00:07;12.07;86.07
68912;SHT31;55953;51.650;-0.522;2023-02-17T02:02:40;12.05;86.09
68912;SHT31;55953;51.650;-0.522;2023-02-17T02:05:14;12.02;86.10
68912;SHT31;55953;51.650;-0.522;2023-02-17T02:07:45;12.00;86.13
68912;SHT31;55953;51.650;-0.522;2023-02-17T02:10:15;11.99;86.03
68912;SHT31;55953;51.650;-0.522;2023-02-17T02:12:45;11.96;86.05
68912;SHT31;55953;51.650;-0.522;2023-02-17T02:15:14;11.90;86.19
68912;SHT31;55953;51.650;-0.522;2023-02-17T02:35:12;11.75;86.64
68912;SHT31;55953;51.650;-0.522;2023-02-17T02:38:13;11.77;86.62
68912;SHT31;55953;51.650;-0.522;2023-02-17T02:41:40;11.77;86.64
68912;SHT31;55953;51.650;-0.522;2023-02-17T02:44:24;11.81;86.55
68912;SHT31;55953;51.650;-0.522;2023-02-17T02:47:31;11.84;86.42
68912;SHT31;55953;51.650;-0.522;2023-02-17T02:50:18;11.86;86.34
68912;SHT31;55953;51.650;-0.522;2023-02-17T02:59:02;11.90;86.25
68912;SHT31;55953;51.650;-0.522;2023-02-17T03:01:42;11.92;86.12
68912;SHT31;55953;51.650;-0.522;2023-02-17T03:07:14;11.95;85.78
68912;SHT31;55953;51.650;-0.522;2023-02-17T03:09:50;11.96;85.68
68912;SHT31;55953;51.650;-0.522;2023-02-17T03:12:22;11.97;85.52
68912;SHT31;55953;51.650;-0.522;2023-02-17T03:14:53;11.99;85.44
68912;SHT31;55953;51.650;-0.522;2023-02-17T03:17:29;11.99;85.37
68912;SHT31;55953;51.650;-0.522;2023-02-17T03:20:00;11.97;85.38
68912;SHT31;55953;51.650;-0.522;2023-02-17T03:22:38;11.95;85.35
68912;SHT31;55953;51.650;-0.522;2023-02-17T03:25:13;11.95;85.22
68912;SHT31;55953;51.650;-0.522;2023-02-17T03:27:42;11.97;85.09
68912;SHT31;55953;51.650;-0.522;2023-02-17T03:30:11;11.95;84.97
68912;SHT31;55953;51.650;-0.522;2023-02-17T03:32:39;11.93;84.89
68912;SHT31;55953;51.650;-0.522;2023-02-17T03:35:08;11.93;84.62
68912;SHT31;55953;51.650;-0.522;2023-02-17T03:37:36;11.93;84.58
68912;SHT31;55953;51.650;-0.522;2023-02-17T03:40:05;11.90;84.66
68912;SHT31;55953;51.650;-0.522;2023-02-17T03:42:35;11.88;84.64
68912;SHT31;55953;51.650;-0.522;2023-02-17T03:45:03;11.87;84.52
68912;SHT31;55953;51.650;-0.522;2023-02-17T03:47:31;11.87;84.44
68912;SHT31;55953;51.650;-0.522;2023-02-17T03:49:59;11.86;84.50
68912;SHT31;55953;51.650;-0.522;2023-02-17T03:52:27;11.85;84.54
68912;SHT31;55953;51.650;-0.522;2023-02-17T03:54:55;11.85;84.55
68912;SHT31;55953;51.650;-0.522;2023-02-17T03:57:23;11.85;84.52
68912;SHT31;55953;51.650;-0.522;2023-02-17T03:59:50;11.84;84.50
68912;SHT31;55953;51.650;-0.522;2023-02-17T04:02:19;11.85;84.37
68912;SHT31;55953;51.650;-0.522;2023-02-17T04:04:47;11.85;84.31
68912;SHT31;55953;51.650;-0.522;2023-02-17T04:07:15;11.84;84.26
68912;SHT31;55953;51.650;-0.522;2023-02-17T04:09:43;11.82;83.98
68912;SHT31;55953;51.650;-0.522;2023-02-17T04:12:11;11.84;83.93
68912;SHT31;55953;51.650;-0.522;2023-02-17T04:14:39;11.85;83.80
68912;SHT31;55953;51.650;-0.522;2023-02-17T04:17:06;11.86;83.68
68912;SHT31;55953;51.650;-0.522;2023-02-17T04:19:34;11.86;83.72
68912;SHT31;55953;51.650;-0.522;2023-02-17T04:22:02;11.86;83.76
68912;SHT31;55953;51.650;-0.522;2023-02-17T04:24:31;11.86;83.79
68912;SHT31;55953;51.650;-0.522;2023-02-17T04:26:58;11.87;83.78
68912;SHT31;55953;51.650;-0.522;2023-02-17T04:29:26;11.84;83.62
68912;SHT31;55953;51.650;-0.522;2023-02-17T04:31:54;11.85;83.28
68912;SHT31;55953;51.650;-0.522;2023-02-17T04:34:22;11.85;83.04
68912;SHT31;55953;51.650;-0.522;2023-02-17T04:36:50;11.86;82.85
68912;SHT31;55953;51.650;-0.522;2023-02-17T04:39:18;11.84;82.63
68912;SHT31;55953;51.650;-0.522;2023-02-17T04:41:46;11.83;82.52
68912;SHT31;55953;51.650;-0.522;2023-02-17T04:44:14;11.83;82.49
68912;SHT31;55953;51.650;-0.522;2023-02-17T04:46:42;11.80;82.24
68912;SHT31;55953;51.650;-0.522;2023-02-17T04:49:10;11.77;82.18
68912;SHT31;55953;51.650;-0.522;2023-02-17T04:51:37;11.75;82.17
68912;SHT31;55953;51.650;-0.522;2023-02-17T04:54:05;11.73;81.96
68912;SHT31;55953;51.650;-0.522;2023-02-17T04:56:33;11.71;81.95
68912;SHT31;55953;51.650;-0.522;2023-02-17T04:59:01;11.68;82.02
68912;SHT31;55953;51.650;-0.522;2023-02-17T05:01:29;11.66;82.10
68912;SHT31;55953;51.650;-0.522;2023-02-17T05:03:57;11.62;81.96
68912;SHT31;55953;51.650;-0.522;2023-02-17T05:06:25;11.59;81.88
68912;SHT31;55953;51.650;-0.522;2023-02-17T05:08:53;11.55;81.85
68912;SHT31;55953;51.650;-0.522;2023-02-17T05:11:21;11.49;81.90
68912;SHT31;55953;51.650;-0.522;2023-02-17T05:13:49;11.48;81.91
68912;SHT31;55953;51.650;-0.522;2023-02-17T05:16:17;11.45;82.14
68912;SHT31;55953;51.650;-0.522;2023-02-17T05:18:45;11.40;82.18
68912;SHT31;55953;51.650;-0.522;2023-02-17T05:21:12;11.35;82.23
68912;SHT31;55953;51.650;-0.522;2023-02-17T05:23:40;11.31;82.30
68912;SHT31;55953;51.650;-0.522;2023-02-17T05:26:08;11.28;82.23
68912;SHT31;55953;51.650;-0.522;2023-02-17T05:28:37;11.26;82.28
68912;SHT31;55953;51.650;-0.522;2023-02-17T05:31:05;11.23;82.31
68912;SHT31;55953;51.650;-0.522;2023-02-17T05:33:33;11.20;82.39
68912;SHT31;55953;51.650;-0.522;2023-02-17T05:36:02;11.19;82.39
68912;SHT31;55953;51.650;-0.522;2023-02-17T05:38:34;11.17;82.39
68912;SHT31;55953;51.650;-0.522;2023-02-17T05:41:04;11.16;82.37
68912;SHT31;55953;51.650;-0.522;2023-02-17T05:43:32;11.15;82.25
68912;SHT31;55953;51.650;-0.522;2023-02-17T05:46:01;11.15;82.38
68912;SHT31;55953;51.650;-0.522;2023-02-17T05:48:31;11.14;82.38
68912;SHT31;55953;51.650;-0.522;2023-02-17T05:50:59;11.12;82.37
68912;SHT31;55953;51.650;-0.522;2023-02-17T05:53:27;11.11;82.44
68912;SHT31;55953;51.650;-0.522;2023-02-17T05:55:55;11.08;82.54
68912;SHT31;55953;51.650;-0.522;2023-02-17T05:58:23;11.06;82.47
68912;SHT31;55953;51.650;-0.522;2023-02-17T06:00:51;11.05;82.52
68912;SHT31;55953;51.650;-0.522;2023-02-17T06:03:19;11.03;82.59
68912;SHT31;55953;51.650;-0.522;2023-02-17T06:05:47;11.03;82.67
68912;SHT31;55953;51.650;-0.522;2023-02-17T06:08:15;11.02;82.80
68912;SHT31;55953;51.650;-0.522;2023-02-17T06:10:42;11.02;82.80
68912;SHT31;55953;51.650;-0.522;2023-02-17T06:13:10;11.02;82.82
68912;SHT31;55953;51.650;-0.522;2023-02-17T06:15:39;11.02;82.89
68912;SHT31;55953;51.650;-0.522;2023-02-17T06:18:07;11.02;82.93
68912;SHT31;55953;51.650;-0.522;2023-02-17T06:20:35;10.99;83.02
68912;SHT31;55953;51.650;-0.522;2023-02-17T06:23:03;10.98;83.11
68912;SHT31;55953;51.650;-0.522;2023-02-17T06:25:31;10.98;83.18
68912;SHT31;55953;51.650;-0.522;2023-02-17T06:27:59;10.98;83.25
68912;SHT31;55953;51.650;-0.522;2023-02-17T06:30:27;11.00;83.32
68912;SHT31;55953;51.650;-0.522;2023-02-17T06:32:55;11.02;83.30
68912;SHT31;55953;51.650;-0.522;2023-02-17T06:35:24;11.05;83.27
68912;SHT31;55953;51.650;-0.522;2023-02-17T06:37:52;11.08;83.17
68912;SHT31;55953;51.650;-0.522;2023-02-17T06:40:20;11.11;83.17
68912;SHT31;55953;51.650;-0.522;2023-02-17T06:42:48;11.14;83.13
68912;SHT31;55953;51.650;-0.522;2023-02-17T06:45:16;11.15;83.12
68912;SHT31;55953;51.650;-0.522;2023-02-17T06:47:44;11.17;83.11
68912;SHT31;55953;51.650;-0.522;2023-02-17T06:50:12;11.18;83.11
68912;SHT31;55953;51.650;-0.522;2023-02-17T06:52:42;11.17;83.14
68912;SHT31;55953;51.650;-0.522;2023-02-17T06:55:10;11.20;83.11
68912;SHT31;55953;51.650;-0.522;2023-02-17T06:57:37;11.21;83.06
68912;SHT31;55953;51.650;-0.522;2023-02-17T07:00:06;11.23;83.04
68912;SHT31;55953;51.650;-0.522;2023-02-17T07:02:38;11.25;83.04
68912;SHT31;55953;51.650;-0.522;2023-02-17T07:05:06;11.25;83.01
68912;SHT31;55953;51.650;-0.522;2023-02-17T07:07:35;11.26;83.02
68912;SHT31;55953;51.650;-0.522;2023-02-17T07:10:03;11.25;83.07
68912;SHT31;55953;51.650;-0.522;2023-02-17T07:12:32;11.26;83.11
68912;SHT31;55953;51.650;-0.522;2023-02-17T07:14:59;11.25;83.19
68912;SHT31;55953;51.650;-0.522;2023-02-17T07:17:27;11.24;83.24
68912;SHT31;55953;51.650;-0.522;2023-02-17T07:19:55;11.23;83.29
68912;SHT31;55953;51.650;-0.522;2023-02-17T07:22:23;11.22;83.37
68912;SHT31;55953;51.650;-0.522;2023-02-17T07:24:53;11.21;83.45
68912;SHT31;55953;51.650;-0.522;2023-02-17T07:27:20;11.20;83.51
68912;SHT31;55953;51.650;-0.522;2023-02-17T07:29:48;11.19;83.57
68912;SHT31;55953;51.650;-0.522;2023-02-17T07:32:16;11.20;83.60
68912;SHT31;55953;51.650;-0.522;2023-02-17T07:34:44;11.20;83.61
68912;SHT31;55953;51.650;-0.522;2023-02-17T07:37:12;11.19;83.72
68912;SHT31;55953;51.650;-0.522;2023-02-17T07:39:40;11.20;83.77
68912;SHT31;55953;51.650;-0.522;2023-02-17T07:42:08;11.20;83.81
68912;SHT31;55953;51.650;-0.522;2023-02-17T07:44:36;11.21;83.92
68912;SHT31;55953;51.650;-0.522;2023-02-17T07:47:04;11.19;84.13
68912;SHT31;55953;51.650;-0.522;2023-02-17T07:49:32;11.20;84.21
68912;SHT31;55953;51.650;-0.522;2023-02-17T07:52:00;11.19;84.46
68912;SHT31;55953;51.650;-0.522;2023-02-17T07:54:31;11.18;84.65
68912;SHT31;55953;51.650;-0.522;2023-02-17T07:56:59;11.19;84.69
68912;SHT31;55953;51.650;-0.522;2023-02-17T07:59:27;11.19;84.85
68912;SHT31;55953;51.650;-0.522;2023-02-17T08:01:55;11.19;84.93
68912;SHT31;55953;51.650;-0.522;2023-02-17T08:04:23;11.21;84.93
68912;SHT31;55953;51.650;-0.522;2023-02-17T08:06:51;11.21;85.10
68912;SHT31;55953;51.650;-0.522;2023-02-17T08:09:19;11.23;85.25
68912;SHT31;55953;51.650;-0.522;2023-02-17T08:12:08;11.25;85.18
68912;SHT31;55953;51.650;-0.522;2023-02-17T08:15:08;11.30;85.08
68912;SHT31;55953;51.650;-0.522;2023-02-17T08:17:37;11.31;84.97
68912;SHT31;55953;51.650;-0.522;2023-02-17T08:20:06;11.34;84.94
68912;SHT31;55953;51.650;-0.522;2023-02-17T08:22:36;11.38;84.78
68912;SHT31;55953;51.650;-0.522;2023-02-17T08:25:04;11.44;84.62
68912;SHT31;55953;51.650;-0.522;2023-02-17T08:27:32;11.52;84.38
68912;SHT31;55953;51.650;-0.522;2023-02-17T08:30:00;11.56;84.05
68912;SHT31;55953;51.650;-0.522;2023-02-17T08:32:28;11.60;83.79
68912;SHT31;55953;51.650;-0.522;2023-02-17T08:34:56;11.65;83.63
68912;SHT31;55953;51.650;-0.522;2023-02-17T08:37:24;11.69;83.49
68912;SHT31;55953;51.650;-0.522;2023-02-17T08:39:52;11.72;83.21
68912;SHT31;55953;51.650;-0.522;2023-02-17T08:42:20;11.78;82.96
68912;SHT31;55953;51.650;-0.522;2023-02-17T08:44:48;11.83;82.68
68912;SHT31;55953;51.650;-0.522;2023-02-17T08:47:16;11.85;82.71
68912;SHT31;55953;51.650;-0.522;2023-02-17T08:49:44;11.89;82.63
68912;SHT31;55953;51.650;-0.522;2023-02-17T08:52:12;11.91;82.44
68912;SHT31;55953;51.650;-0.522;2023-02-17T08:54:40;11.92;82.38
68912;SHT31;55953;51.650;-0.522;2023-02-17T08:57:08;11.94;82.37
68912;SHT31;55953;51.650;-0.522;2023-02-17T08:59:36;11.98;82.22
68912;SHT31;55953;51.650;-0.522;2023-02-17T09:02:04;12.01;82.11
68912;SHT31;55953;51.650;-0.522;2023-02-17T09:04:32;12.03;81.91
68912;SHT31;55953;51.650;-0.522;2023-02-17T09:07:00;12.07;81.86
68912;SHT31;55953;51.650;-0.522;2023-02-17T09:09:28;12.13;81.77
68912;SHT31;55953;51.650;-0.522;2023-02-17T09:11:56;12.14;81.60
68912;SHT31;55953;51.650;-0.522;2023-02-17T09:14:25;12.16;81.58
68912;SHT31;55953;51.650;-0.522;2023-02-17T09:16:54;12.18;81.38
68912;SHT31;55953;51.650;-0.522;2023-02-17T09:19:23;12.19;81.39
68912;SHT31;55953;51.650;-0.522;2023-02-17T09:21:53;12.23;81.35
68912;SHT31;55953;51.650;-0.522;2023-02-17T09:24:21;12.27;81.22
68912;SHT31;55953;51.650;-0.522;2023-02-17T09:26:50;12.30;81.07
68912;SHT31;55953;51.650;-0.522;2023-02-17T09:29:18;12.30;80.98
68912;SHT31;55953;51.650;-0.522;2023-02-17T09:31:46;12.33;80.99
68912;SHT31;55953;51.650;-0.522;2023-02-17T09:34:14;12.36;80.92
68912;SHT31;55953;51.650;-0.522;2023-02-17T09:36:42;12.39;80.82
68912;SHT31;55953;51.650;-0.522;2023-02-17T09:39:11;12.39;80.90
68912;SHT31;55953;51.650;-0.522;2023-02-17T09:41:47;12.43;80.98
68912;SHT31;55953;51.650;-0.522;2023-02-17T09:44:23;12.44;80.66
68912;SHT31;55953;51.650;-0.522;2023-02-17T09:47:00;12.47;80.77
68912;SHT31;55953;51.650;-0.522;2023-02-17T09:49:45;12.55;80.72
68912;SHT31;55953;51.650;-0.522;2023-02-17T09:52:25;12.59;80.40
68912;SHT31;55953;51.650;-0.522;2023-02-17T09:55:14;12.63;80.27
68912;SHT31;55953;51.650;-0.522;2023-02-17T10:00:26;12.67;80.13
68912;SHT31;55953;51.650;-0.522;2023-02-17T10:06:30;12.70;80.30
68912;SHT31;55953;51.650;-0.522;2023-02-17T10:11:39;12.79;80.11
68912;SHT31;55953;51.650;-0.522;2023-02-17T10:17:40;12.88;80.08
68912;SHT31;55953;51.650;-0.522;2023-02-17T10:20:34;12.99;79.99
68912;SHT31;55953;51.650;-0.522;2023-02-17T10:23:15;13.10;79.99
68912;SHT31;55953;51.650;-0.522;2023-02-17T10:26:13;13.16;79.44
68912;SHT31;55953;51.650;-0.522;2023-02-17T10:28:52;13.20;79.49
68912;SHT31;55953;51.650;-0.522;2023-02-17T10:40:32;13.49;78.97
68912;SHT31;55953;51.650;-0.522;2023-02-17T10:43:01;13.57;78.83
68912;SHT31;55953;51.650;-0.522;2023-02-17T10:45:35;13.70;78.71
68912;SHT31;55953;51.650;-0.522;2023-02-17T10:48:10;13.80;78.25
68912;SHT31;55953;51.650;-0.522;2023-02-17T10:50:44;13.86;77.98
68912;SHT31;55953;51.650;-0.522;2023-02-17T10:53:15;13.90;78.00
68912;SHT31;55953;51.650;-0.522;2023-02-17T10:58:29;14.02;77.77
68912;SHT31;55953;51.650;-0.522;2023-02-17T11:01:21;14.01;77.75
68912;SHT31;55953;51.650;-0.522;2023-02-17T11:04:02;14.06;77.81
68912;SHT31;55953;51.650;-0.522;2023-02-17T11:06:49;14.04;77.51
68912;SHT31;55953;51.650;-0.522;2023-02-17T11:11:59;14.02;77.84
68912;SHT31;55953;51.650;-0.522;2023-02-17T11:14:32;13.97;77.72
68912;SHT31;55953;51.650;-0.522;2023-02-17T11:20:06;13.89;77.97
68912;SHT31;55953;51.650;-0.522;2023-02-17T11:22:42;13.94;78.32
68912;SHT31;55953;51.650;-0.522;2023-02-17T11:25:26;13.99;78.06
68912;SHT31;55953;51.650;-0.522;2023-02-17T11:28:03;14.00;77.99
68912;SHT31;55953;51.650;-0.522;2023-02-17T11:30:47;14.06;78.05
68912;SHT31;55953;51.650;-0.522;2023-02-17T11:33:22;14.15;77.94
68912;SHT31;55953;51.650;-0.522;2023-02-17T11:36:05;14.25;78.07
68912;SHT31;55953;51.650;-0.522;2023-02-17T11:41:05;14.40;77.35
68912;SHT31;55953;51.650;-0.522;2023-02-17T11:43:34;14.37;77.19
68912;SHT31;55953;51.650;-0.522;2023-02-17T11:55:13;14.33;77.49
68912;SHT31;55953;51.650;-0.522;2023-02-17T11:58:03;14.38;77.61
68912;SHT31;55953;51.650;-0.522;2023-02-17T12:00:58;14.42;77.26
68912;SHT31;55953;51.650;-0.522;2023-02-17T12:18:30;14.55;77.32
68912;SHT31;55953;51.650;-0.522;2023-02-17T12:21:16;14.64;77.16
68912;SHT31;55953;51.650;-0.522;2023-02-17T12:35:44;14.91;75.96
68912;SHT31;55953;51.650;-0.522;2023-02-17T12:38:20;15.00;75.89
68912;SHT31;55953;51.650;-0.522;2023-02-17T12:40:58;15.01;75.51
68912;SHT31;55953;51.650;-0.522;2023-02-17T12:43:45;15.00;75.58
68912;SHT31;55953;51.650;-0.522;2023-02-17T12:49:16;15.08;75.39
68912;SHT31;55953;51.650;-0.522;2023-02-17T12:52:03;15.22;75.06
68912;SHT31;55953;51.650;-0.522;2023-02-17T12:57:35;15.28;74.36
68912;SHT31;55953;51.650;-0.522;2023-02-17T13:03:00;15.33;74.44
68912;SHT31;55953;51.650;-0.522;2023-02-17T13:05:45;15.40;74.26
68912;SHT31;55953;51.650;-0.522;2023-02-17T13:08:27;15.48;74.10
68912;SHT31;55953;51.650;-0.522;2023-02-17T13:11:32;15.57;73.62
68912;SHT31;55953;51.650;-0.522;2023-02-17T13:20:22;15.53;72.25
68912;SHT31;55953;51.650;-0.522;2023-02-17T13:23:02;15.48;72.34
68912;SHT31;55953;51.650;-0.522;2023-02-17T13:25:32;15.45;72.61
68912;SHT31;55953;51.650;-0.522;2023-02-17T13:28:17;15.44;72.25
68912;SHT31;55953;51.650;-0.522;2023-02-17T13:31:22;15.46;72.10
68912;SHT31;55953;51.650;-0.522;2023-02-17T13:33:54;15.44;71.75
68912;SHT31;55953;51.650;-0.522;2023-02-17T13:39:04;15.47;71.38
68912;SHT31;55953;51.650;-0.522;2023-02-17T13:41:59;15.43;71.42
68912;SHT31;55953;51.650;-0.522;2023-02-17T13:44:47;15.43;71.66
68912;SHT31;55953;51.650;-0.522;2023-02-17T13:47:28;15.47;71.51
68912;SHT31;55953;51.650;-0.522;2023-02-17T13:50:04;15.49;71.21
68912;SHT31;55953;51.650;-0.522;2023-02-17T13:52:33;15.47;71.24
68912;SHT31;55953;51.650;-0.522;2023-02-17T13:55:03;15.50;70.98
68912;SHT31;55953;51.650;-0.522;2023-02-17T13:57:34;15.47;70.93
68912;SHT31;55953;51.650;-0.522;2023-02-17T14:02:52;15.30;71.24
68912;SHT31;55953;51.650;-0.522;2023-02-17T14:08:03;15.15;71.51
68912;SHT31;55953;51.650;-0.522;2023-02-17T14:10:45;15.14;71.59
68912;SHT31;55953;51.650;-0.522;2023-02-17T14:13:13;15.20;71.71
68912;SHT31;55953;51.650;-0.522;2023-02-17T14:15:55;15.25;71.76
68912;SHT31;55953;51.650;-0.522;2023-02-17T14:18:31;15.30;71.57
68912;SHT31;55953;51.650;-0.522;2023-02-17T14:23:40;15.31;71.61
68912;SHT31;55953;51.650;-0.522;2023-02-17T14:28:54;15.31;71.56
68912;SHT31;55953;51.650;-0.522;2023-02-17T14:31:27;15.30;71.56
68912;SHT31;55953;51.650;-0.522;2023-02-17T14:33:57;15.30;71.45
68912;SHT31;55953;51.650;-0.522;2023-02-17T14:36:30;15.32;71.31
68912;SHT31;55953;51.650;-0.522;2023-02-17T14:39:00;15.35;71.20
68912;SHT31;55953;51.650;-0.522;2023-02-17T14:41:31;15.34;71.00
68912;SHT31;55953;51.650;-0.522;2023-02-17T14:43:59;15.34;71.52
68912;SHT31;55953;51.650;-0.522;2023-02-17T14:46:28;15.43;71.38
68912;SHT31;55953;51.650;-0.522;2023-02-17T14:48:56;15.43;71.10
68912;SHT31;55953;51.650;-0.522;2023-02-17T14:51:30;15.34;70.98
68912;SHT31;55953;51.650;-0.522;2023-02-17T14:54:01;15.29;71.08
68912;SHT31;55953;51.650;-0.522;2023-02-17T14:56:40;15.27;71.38
68912;SHT31;55953;51.650;-0.522;2023-02-17T14:59:19;15.29;71.48
68912;SHT31;55953;51.650;-0.522;2023-02-17T15:01:47;15.29;71.74
68912;SHT31;55953;51.650;-0.522;2023-02-17T15:04:15;15.17;70.99
68912;SHT31;55953;51.650;-0.522;2023-02-17T15:06:44;15.08;71.10
68912;SHT31;55953;51.650;-0.522;2023-02-17T15:09:16;14.99;71.23
68912;SHT31;55953;51.650;-0.522;2023-02-17T15:11:49;14.89;71.08
68912;SHT31;55953;51.650;-0.522;2023-02-17T15:14:18;14.81;71.40
68912;SHT31;55953;51.650;-0.522;2023-02-17T15:16:48;14.82;71.82
68912;SHT31;55953;51.650;-0.522;2023-02-17T15:19:16;14.83;71.52
68912;SHT31;55953;51.650;-0.522;2023-02-17T15:21:45;14.83;71.65
68912;SHT31;55953;51.650;-0.522;2023-02-17T15:24:22;14.88;72.16
68912;SHT31;55953;51.650;-0.522;2023-02-17T15:27:02;14.92;72.19
68912;SHT31;55953;51.650;-0.522;2023-02-17T15:29:31;14.94;72.09
68912;SHT31;55953;51.650;-0.522;2023-02-17T15:32:00;14.85;72.02
68912;SHT31;55953;51.650;-0.522;2023-02-17T15:34:31;14.76;72.21
68912;SHT31;55953;51.650;-0.522;2023-02-17T15:37:00;14.67;72.57
68912;SHT31;55953;51.650;-0.522;2023-02-17T15:39:28;14.59;72.75
68912;SHT31;55953;51.650;-0.522;2023-02-17T15:41:56;14.46;72.97
68912;SHT31;55953;51.650;-0.522;2023-02-17T15:44:53;14.35;73.27
68912;SHT31;55953;51.650;-0.522;2023-02-17T15:47:20;14.27;73.55
68912;SHT31;55953;51.650;-0.522;2023-02-17T15:49:48;14.22;73.89
68912;SHT31;55953;51.650;-0.522;2023-02-17T15:52:16;14.16;74.17
68912;SHT31;55953;51.650;-0.522;2023-02-17T15:54:44;14.08;74.63
68912;SHT31;55953;51.650;-0.522;2023-02-17T15:57:19;13.99;75.05
68912;SHT31;55953;51.650;-0.522;2023-02-17T15:59:51;13.87;75.46
68912;SHT31;55953;51.650;-0.522;2023-02-17T16:02:22;13.79;75.60
68912;SHT31;55953;51.650;-0.522;2023-02-17T16:04:52;13.72;75.81
68912;SHT31;55953;51.650;-0.522;2023-02-17T16:07:20;13.68;76.03
68912;SHT31;55953;51.650;-0.522;2023-02-17T16:09:48;13.65;76.34
68912;SHT31;55953;51.650;-0.522;2023-02-17T16:12:19;13.63;76.57
68912;SHT31;55953;51.650;-0.522;2023-02-17T16:14:54;13.61;76.67
68912;SHT31;55953;51.650;-0.522;2023-02-17T16:17:23;13.57;76.75
68912;SHT31;55953;51.650;-0.522;2023-02-17T16:19:52;13.52;76.90
68912;SHT31;55953;51.650;-0.522;2023-02-17T16:22:20;13.51;77.00
68912;SHT31;55953;51.650;-0.522;2023-02-17T16:24:48;13.47;77.24
68912;SHT31;55953;51.650;-0.522;2023-02-17T16:27:16;13.43;77.36
68912;SHT31;55953;51.650;-0.522;2023-02-17T16:29:44;13.38;77.62
68912;SHT31;55953;51.650;-0.522;2023-02-17T16:32:12;13.30;77.88
68912;SHT31;55953;51.650;-0.522;2023-02-17T16:34:40;13.22;78.06
68912;SHT31;55953;51.650;-0.522;2023-02-17T16:37:10;13.16;78.24
68912;SHT31;55953;51.650;-0.522;2023-02-17T16:39:42;13.08;78.39
68912;SHT31;55953;51.650;-0.522;2023-02-17T16:42:12;13.01;78.76
68912;SHT31;55953;51.650;-0.522;2023-02-17T16:44:41;12.95;78.93
68912;SHT31;55953;51.650;-0.522;2023-02-17T16:47:18;12.89;78.97
68912;SHT31;55953;51.650;-0.522;2023-02-17T16:49:49;12.85;79.04
68912;SHT31;55953;51.650;-0.522;2023-02-17T16:52:24;12.77;79.59
68912;SHT31;55953;51.650;-0.522;2023-02-17T16:54:54;12.70;79.70
68912;SHT31;55953;51.650;-0.522;2023-02-17T16:57:22;12.66;79.76
68912;SHT31;55953;51.650;-0.522;2023-02-17T16:59:50;12.61;79.98
68912;SHT31;55953;51.650;-0.522;2023-02-17T17:02:18;12.57;80.11
68912;SHT31;55953;51.650;-0.522;2023-02-17T17:04:48;12.50;80.33
68912;SHT31;55953;51.650;-0.522;2023-02-17T17:07:17;12.46;80.50
68912;SHT31;55953;51.650;-0.522;2023-02-17T17:09:45;12.40;80.46
68912;SHT31;55953;51.650;-0.522;2023-02-17T17:12:33;12.33;80.66
68912;SHT31;55953;51.650;-0.522;2023-02-17T17:15:01;12.27;80.96
68912;SHT31;55953;51.650;-0.522;2023-02-17T17:17:31;12.23;81.44
68912;SHT31;55953;51.650;-0.522;2023-02-17T17:20:13;12.18;81.50
68912;SHT31;55953;51.650;-0.522;2023-02-17T17:22:59;12.13;81.62
68912;SHT31;55953;51.650;-0.522;2023-02-17T17:25:37;12.09;81.48
68912;SHT31;55953;51.650;-0.522;2023-02-17T17:28:11;12.06;81.74
68912;SHT31;55953;51.650;-0.522;2023-02-17T17:30:41;12.05;81.87
68912;SHT31;55953;51.650;-0.522;2023-02-17T17:33:09;12.07;81.92
68912;SHT31;55953;51.650;-0.522;2023-02-17T17:35:37;12.10;82.08
68912;SHT31;55953;51.650;-0.522;2023-02-17T17:38:05;12.11;82.22
68912;SHT31;55953;51.650;-0.522;2023-02-17T17:40:34;12.12;82.26
68912;SHT31;55953;51.650;-0.522;2023-02-17T17:43:15;12.11;82.37
68912;SHT31;55953;51.650;-0.522;2023-02-17T17:45:50;12.11;82.23
68912;SHT31;55953;51.650;-0.522;2023-02-17T17:48:18;12.10;82.30